Halifax Express — VRMW7 — position and weather

sailwx.info

Track history (hours):
 
Tides and Currents Weather Stations Pressure Air Temp Water Temp Dewpoint Dewpoint Depression Visibility Wind Speed Wind Dir Waves Ship Positions

Halifax Express

Last reported at 2017-Dec-09 21:11 UTC. Time now 2017-Dec-11 02:20 UTC.
Position N 32°13' W 117°35'.

Length 294 m; draft 11.6 m.

Type: Cargo ship. MMSI: 477133700.

Date/timePositionNaut miles runAvg speedWind from/ knotsBaromVisibWave heightAir tempDewpointWater temp
2017-Dec-09 21:11N 32°13' W 117°35'315.3
2017-Dec-09 21:00N 32°15' W 117°36'715.2
2017-Dec-09 20:31N 32°22' W 117°39'815.2
2017-Dec-09 20:01N 32°29' W 117°42'815.4
2017-Dec-09 19:30N 32°37' W 117°45'815.7
2017-Dec-09 19:01N 32°44' W 117°48'815.4
2017-Dec-09 18:30N 32°52' W 117°51'815.4
2017-Dec-09 18:00N 32°59' W 117°54'611.7
2017-Dec-09 17:31N 33°04' W 117°56'510.2
2017-Dec-09 17:00N 33°09' W 117°59'510.4
2017-Dec-09 16:30N 33°13' W 118°02'510.4
2017-Dec-09 16:00N 33°18' W 118°05'510.3
2017-Dec-09 15:30N 33°23' W 118°08'510.2
2017-Dec-09 15:00N 33°27' W 118°10'510.3
2017-Dec-09 14:30N 33°32' W 118°12'510.2
2017-Dec-09 14:00N 33°37' W 118°13'5 9.8
2017-Dec-09 13:30N 33°42' W 118°12'3 6.3
2017-Dec-09 13:00N 33°45' W 118°13'1 0.4
2017-Dec-09 08:58N 33°46' W 118°14'0 0.0
2017-Dec-09 08:04N 33°46' W 118°14'0 0.0
2017-Dec-09 07:52N 33°46' W 118°14'0 0.0
2017-Dec-08 22:05N 33°46' W 118°14'0 1.7
2017-Dec-08 21:58N 33°46' W 118°14'3 3.7
2017-Dec-08 21:17N 33°44' W 118°12'4 8.8
2017-Dec-08 20:52N 33°41' W 118°11'2 6.6
2017-Dec-08 20:30N 33°38' W 118°11'4 8.5
2017-Dec-08 20:00N 33°36' W 118°16'4 8.5
2017-Dec-08 19:30N 33°36' W 118°21'4 8.9
2017-Dec-08 19:01N 33°36' W 118°26'510.6
2017-Dec-08 18:31N 33°36' W 118°32'510.6
2017-Dec-08 18:00N 33°37' W 118°39'510.8
2017-Dec-08 17:30N 33°36' W 118°45'510.8
2017-Dec-08 17:00N 33°36' W 118°52'510.9
2017-Dec-08 16:30N 33°36' W 118°58'4 8.4
2017-Dec-08 16:01N 33°36' W 119°03'510.4
2017-Dec-08 15:30N 33°36' W 119°10'510.5
2017-Dec-08 15:00N 33°35' W 119°16'510.1
2017-Dec-08 14:30N 33°34' W 119°22'510.4
2017-Dec-08 13:59N 33°33' W 119°28'510.5
2017-Dec-08 13:30N 33°32' W 119°34'5 9.8
2017-Dec-08 13:00N 33°32' W 119°40'510.1
2017-Dec-08 12:30N 33°31' W 119°46'510.8
2017-Dec-08 12:00N 33°30' W 119°52'611.1
2017-Dec-08 11:30N 33°29' W 119°59'610.9
2017-Dec-08 11:00N 33°28' W 120°05'713.4
2017-Dec-08 10:30N 33°28' W 120°13'915.4
2017-Dec-08 09:57N 33°30' W 120°23'715.0
2017-Dec-08 09:30N 33°31' W 120°31'714.6
2017-Dec-08 09:00N 33°33' W 120°40'713.9
2017-Dec-08 08:30N 33°35' W 120°48'714.8
2017-Dec-08 08:00N 33°42' W 120°52'714.9
2017-Dec-08 07:30N 33°48' W 120°56'815.1
2017-Dec-08 07:00N 33°55' W 120°60'815.3
2017-Dec-08 06:30N 34°02' W 121°04'715.0
2017-Dec-08 06:00N 34°08' W 121°09'815.2
2017-Dec-08 05:30N 34°15' W 121°13'915.8
2017-Dec-08 04:58N 34°23' W 121°18'715.9
2017-Dec-08 04:30N 34°29' W 121°22'815.5
2017-Dec-08 04:00N 34°36' W 121°26'815.6
2017-Dec-08 03:30N 34°43' W 121°30'815.6
2017-Dec-08 03:00N 34°50' W 121°35'815.5
2017-Dec-08 02:30N 34°57' W 121°39'815.6
2017-Dec-08 02:00N 35°03' W 121°44'815.4
2017-Dec-08 01:30N 35°10' W 121°49'815.6
2017-Dec-08 01:00N 35°17' W 121°53'815.7
2017-Dec-08 00:30N 35°24' W 121°57'815.4
2017-Dec-08 00:00N 35°31' W 122°02'715.1
2017-Dec-07 23:30N 35°37' W 122°06'815.4
2017-Dec-07 23:00N 35°44' W 122°11'815.3
2017-Dec-07 22:30N 35°51' W 122°15'815.6
2017-Dec-07 22:00N 35°58' W 122°19'815.6
2017-Dec-07 21:30N 36°05' W 122°23'815.6
2017-Dec-07 21:00N 36°12' W 122°26'815.9
2017-Dec-07 20:30N 36°20' W 122°30'816.3
2017-Dec-07 20:00N 36°27' W 122°34'815.6
2017-Dec-07 19:30N 36°35' W 122°38'815.2
2017-Dec-07 19:00N 36°41' W 122°42'714.6
2017-Dec-07 18:31N 36°48' W 122°44'611.6
2017-Dec-07 18:01N 36°54' W 122°43'510.1
2017-Dec-07 17:31N 36°59' W 122°44'510.2
2017-Dec-07 17:00N 37°05' W 122°44'510.5
2017-Dec-07 16:30N 37°10' W 122°44'510.4
2017-Dec-07 16:01N 37°15' W 122°44'510.3
2017-Dec-07 15:30N 37°20' W 122°44'510.2
2017-Dec-07 15:01N 37°25' W 122°44'510.3
2017-Dec-07 14:29N 37°30' W 122°44'510.4
2017-Dec-07 14:00N 37°36' W 122°44'5 9.9
2017-Dec-07 13:30N 37°40' W 122°43'510.2
2017-Dec-07 13:01N 37°45' W 122°40'612.3
2017-Dec-07 12:30N 37°48' W 122°33'815.3
2017-Dec-07 12:00N 37°50' W 122°24'4 8.5
2017-Dec-07 11:30N 37°48' W 122°19'0 0.0
2017-Dec-07 10:59N 37°48' W 122°19'0 0.0
2017-Dec-07 10:29N 37°48' W 122°19'0 0.0
2017-Dec-07 09:59N 37°48' W 122°19'0 0.0
2017-Dec-07 09:29N 37°48' W 122°19'0 0.0
2017-Dec-07 08:59N 37°48' W 122°19'0 0.0
2017-Dec-07 08:30N 37°48' W 122°19'0 0.0
2017-Dec-07 08:00N 37°48' W 122°19'0 0.0
2017-Dec-07 07:29N 37°48' W 122°19'0 0.0
2017-Dec-07 06:59N 37°48' W 122°19'0 0.0
2017-Dec-07 06:29N 37°48' W 122°19'0 0.0
2017-Dec-07 05:59N 37°48' W 122°19'0 0.0
2017-Dec-07 05:29N 37°48' W 122°19'0 0.0
2017-Dec-07 04:59N 37°48' W 122°19'0 0.0
2017-Dec-07 04:30N 37°48' W 122°19'0 0.0
2017-Dec-07 03:59N 37°48' W 122°19'0 0.0
2017-Dec-07 03:29N 37°48' W 122°19'0 0.0
2017-Dec-07 02:59N 37°48' W 122°19'0 0.0
2017-Dec-07 02:29N 37°48' W 122°19'0 0.0
2017-Dec-07 01:59N 37°48' W 122°19'0 0.0
2017-Dec-07 01:29N 37°48' W 122°19'0 0.0
2017-Dec-07 01:00N 37°48' W 122°19'0 0.0
2017-Dec-07 00:29N 37°48' W 122°19'0 0.0
2017-Dec-06 23:59N 37°48' W 122°19'1 2.6
2017-Dec-06 23:30N 37°48' W 122°17'2 3.5
2017-Dec-06 23:00N 37°48' W 122°20'4 8.8
2017-Dec-06 22:30N 37°49' W 122°25'714.3
2017-Dec-06 22:01N 37°47' W 122°34'713.1
2017-Dec-06 21:30N 37°46' W 122°42'4 8.4
2017-Dec-06 21:00N 37°47' W 122°47'  
2017-Dec-04 10:30N 48°29' W 124°38'611.7
2017-Dec-04 10:00N 48°27' W 124°30'611.5
2017-Dec-04 09:30N 48°25' W 124°22'611.5
2017-Dec-04 09:00N 48°22' W 124°14'611.9
2017-Dec-04 08:30N 48°20' W 124°06'611.8
2017-Dec-04 08:00N 48°18' W 123°57'611.8
2017-Dec-04 07:30N 48°17' W 123°49'713.7
2017-Dec-04 07:00N 48°16' W 123°38'612.3
2017-Dec-04 06:30N 48°17' W 123°29'612.9
2017-Dec-04 06:00N 48°23' W 123°24'611.5
2017-Dec-04 05:31N 48°24' W 123°16'917.2
2017-Dec-04 05:00N 48°32' W 123°13'1020.7
2017-Dec-04 04:30N 48°42' W 123°15'1019.5
2017-Dec-04 04:00N 48°47' W 123°02'816.6
2017-Dec-04 03:30N 48°54' W 123°08'1019.3
2017-Dec-04 03:00N 49°01' W 123°19'611.6
2017-Dec-04 02:30N 49°06' W 123°18'612.1
2017-Dec-04 02:00N 49°07' W 123°09'611.6
2017-Dec-04 01:30N 49°09' W 123°01'4 8.2
2017-Dec-04 01:00N 49°11' W 122°55'0 0.9
2017-Dec-04 00:30N 49°11' W 122°55'0 0.0
2017-Dec-04 00:00N 49°11' W 122°55'0 0.0
2017-Dec-03 23:29N 49°11' W 122°55'0 0.0
2017-Dec-03 22:59N 49°11' W 122°55'0 0.0
2017-Dec-03 22:29N 49°11' W 122°55'0 0.0
2017-Dec-03 21:59N 49°11' W 122°55'0 0.0
2017-Dec-03 21:29N 49°11' W 122°55'0 0.0
2017-Dec-03 20:59N 49°11' W 122°55'0 0.0
2017-Dec-03 20:29N 49°11' W 122°55'0 0.0
2017-Dec-03 19:59N 49°11' W 122°55'0 0.0
2017-Dec-03 19:29N 49°11' W 122°55'0 0.0
2017-Dec-03 18:59N 49°11' W 122°55'0 0.0
2017-Dec-03 18:29N 49°11' W 122°55'0 0.0
2017-Dec-03 17:59N 49°11' W 122°55'0 0.0
2017-Dec-03 17:29N 49°11' W 122°55'0 0.0
2017-Dec-03 16:59N 49°11' W 122°55'0 0.0
2017-Dec-03 16:26N 49°11' W 122°55'0 0.0
2017-Dec-03 15:59N 49°11' W 122°55'0 0.0
2017-Dec-03 15:23N 49°11' W 122°55'0 0.0
2017-Dec-03 14:59N 49°11' W 122°55'0 0.0
2017-Dec-03 14:29N 49°11' W 122°55'0 0.0
2017-Dec-03 13:59N 49°11' W 122°55'0 0.0
2017-Dec-03 13:29N 49°11' W 122°55'0 0.0
2017-Dec-03 12:59N 49°11' W 122°55'0 0.0
2017-Dec-03 12:29N 49°11' W 122°55'0 0.0
2017-Dec-03 11:59N 49°11' W 122°55'0 0.0
2017-Dec-03 11:29N 49°11' W 122°55'0 0.0
2017-Dec-03 10:59N 49°11' W 122°55'0 0.0
2017-Dec-03 10:29N 49°11' W 122°55'0 0.0
2017-Dec-03 09:59N 49°11' W 122°55'0 0.0
2017-Dec-03 09:26N 49°11' W 122°55'0 0.0
2017-Dec-03 08:59N 49°11' W 122°55'0 0.0
2017-Dec-03 08:29N 49°11' W 122°55'0 0.0
2017-Dec-03 07:59N 49°11' W 122°55'0 0.0
2017-Dec-03 07:29N 49°11' W 122°55'0 0.0
2017-Dec-03 06:59N 49°11' W 122°55'0 0.0
2017-Dec-03 06:29N 49°11' W 122°55'0 0.0
2017-Dec-03 05:59N 49°11' W 122°55'0 0.0
2017-Dec-03 05:29N 49°11' W 122°55'0 0.0
2017-Dec-03 04:59N 49°11' W 122°55'0 0.0
2017-Dec-03 04:29N 49°11' W 122°55'0 0.0
2017-Dec-03 03:59N 49°11' W 122°55'0 0.0
2017-Dec-03 03:29N 49°11' W 122°55'0 0.0
2017-Dec-03 02:59N 49°11' W 122°55'0 0.0
2017-Dec-03 02:29N 49°11' W 122°55'0 0.0
2017-Dec-03 01:59N 49°11' W 122°55'0 0.0
2017-Dec-03 01:29N 49°11' W 122°55'0 0.0
2017-Dec-03 00:59N 49°11' W 122°55'0 0.0
2017-Dec-03 00:29N 49°11' W 122°55'0 0.0
2017-Dec-02 23:59N 49°11' W 122°55'0 0.0
2017-Dec-02 23:26N 49°11' W 122°55'0 0.0
2017-Dec-02 22:59N 49°11' W 122°55'0 0.0
2017-Dec-02 22:29N 49°11' W 122°55'0 0.0
2017-Dec-02 21:59N 49°11' W 122°55'0 0.0
2017-Dec-02 21:29N 49°11' W 122°55'0 0.0
2017-Dec-02 20:56N 49°11' W 122°55'0 0.0
2017-Dec-02 20:26N 49°11' W 122°55'0 0.0
2017-Dec-02 19:56N 49°11' W 122°55'0 0.0
2017-Dec-02 19:26N 49°11' W 122°55'0 0.0
2017-Dec-02 18:59N 49°11' W 122°55'0 0.0
2017-Dec-02 18:29N 49°11' W 122°55'0 0.0
2017-Dec-02 17:53N 49°11' W 122°55'0 0.0
2017-Dec-02 17:29N 49°11' W 122°55'0 0.0
2017-Dec-02 16:32N 49°11' W 122°55'0 0.0
2017-Dec-02 16:29N 49°11' W 122°55'0 0.0
2017-Dec-02 15:59N 49°11' W 122°55'0 0.0
2017-Dec-02 15:29N 49°11' W 122°55'0 0.0
2017-Dec-02 14:59N 49°11' W 122°55'0 0.0
2017-Dec-02 14:29N 49°11' W 122°55'0 0.0
2017-Dec-02 13:59N 49°11' W 122°55'0 0.0
2017-Dec-02 13:29N 49°11' W 122°55'0 0.0
2017-Dec-02 12:59N 49°11' W 122°55'0 0.0
2017-Dec-02 12:29N 49°11' W 122°55'0 0.0
2017-Dec-02 11:59N 49°11' W 122°55'0 0.0
2017-Dec-02 11:17N 49°11' W 122°55'0 0.0
2017-Dec-02 10:59N 49°11' W 122°55'0 0.0
2017-Dec-02 10:23N 49°11' W 122°55'0 0.0
2017-Dec-02 09:59N 49°11' W 122°55'0 0.0
2017-Dec-02 09:29N 49°11' W 122°55'0 0.0
2017-Dec-02 08:59N 49°11' W 122°55'0 0.0
2017-Dec-02 08:29N 49°11' W 122°55'0 0.0
2017-Dec-02 07:59N 49°11' W 122°55'0 0.0
2017-Dec-02 07:29N 49°11' W 122°55'0 0.0
2017-Dec-02 06:53N 49°11' W 122°55'0 0.0
2017-Dec-02 06:29N 49°11' W 122°55'0 0.0
2017-Dec-02 05:59N 49°11' W 122°55'0 0.0
2017-Dec-02 05:26N 49°11' W 122°55'0 0.0
2017-Dec-02 04:59N 49°11' W 122°55'0 0.0
2017-Dec-02 04:29N 49°11' W 122°55'0 0.0
2017-Dec-02 03:59N 49°11' W 122°55'0 0.0
2017-Dec-02 03:30N 49°11' W 122°55'2 3.1
2017-Dec-02 03:00N 49°10' W 122°56'3 6.1
2017-Dec-02 02:30N 49°09' W 123°01'4 7.5
2017-Dec-02 02:00N 49°07' W 123°05'5 9.7
2017-Dec-02 01:30N 49°08' W 123°13'611.3
2017-Dec-02 01:00N 49°05' W 123°20'5 9.7
2017-Dec-02 00:30N 49°01' W 123°16'917.2
2017-Dec-02 00:00N 48°55' W 123°06'816.9
2017-Dec-01 23:30N 48°48' W 123°00'816.6
2017-Dec-01 23:00N 48°43' W 123°10'714.2
2017-Dec-01 22:30N 48°36' W 123°13'918.6
2017-Dec-01 22:00N 48°27' W 123°10'816.5
2017-Dec-01 21:30N 48°22' W 123°20'2 4.8
2017-Dec-01 21:00N 48°20' W 123°22'0 0.9
2017-Dec-01 20:30N 48°20' W 123°21'0 0.1
2017-Dec-01 20:00N 48°20' W 123°21'0 0.0
2017-Dec-01 19:30N 48°20' W 123°21'0 0.0
2017-Dec-01 18:57N 48°20' W 123°21'0 0.3
2017-Dec-01 18:30N 48°20' W 123°21'0 0.2
2017-Dec-01 18:00N 48°20' W 123°22'0 0.2
2017-Dec-01 17:30N 48°20' W 123°22'0 0.0
2017-Dec-01 17:00N 48°20' W 123°22'0 0.0
2017-Dec-01 16:30N 48°20' W 123°22'0 0.0
2017-Dec-01 16:00N 48°20' W 123°22'0 0.0
2017-Dec-01 15:30N 48°20' W 123°22'0 0.0
2017-Dec-01 15:00N 48°20' W 123°22'0 0.0
2017-Dec-01 14:30N 48°20' W 123°22'0 0.0
2017-Dec-01 14:00N 48°20' W 123°22'0 0.1
2017-Dec-01 13:30N 48°20' W 123°22'0 0.0
2017-Dec-01 13:00N 48°20' W 123°22'0 0.1
2017-Dec-01 12:30N 48°20' W 123°22'0 0.1
2017-Dec-01 12:00N 48°20' W 123°22'0 0.2
2017-Dec-01 11:30N 48°20' W 123°21'0 0.2
2017-Dec-01 11:00N 48°20' W 123°21'0 0.2
2017-Dec-01 10:30N 48°20' W 123°21'0 0.1
2017-Dec-01 10:00N 48°20' W 123°21'0 0.0
2017-Dec-01 09:30N 48°20' W 123°21'0 0.1
2017-Dec-01 09:00N 48°20' W 123°21'0 0.2
2017-Dec-01 08:31N 48°20' W 123°21'2 3.7
2017-Dec-01 08:01N 48°20' W 123°24'611.1
2017-Dec-01 07:31N 48°15' W 123°26'611.0
2017-Dec-01 07:00N 48°10' W 123°22'3 6.1
2017-Dec-01 06:30N 48°09' W 123°18'816.4
2017-Dec-01 06:00N 48°13' W 123°06'917.6
2017-Dec-01 05:30N 48°12' W 122°53'917.3
2017-Dec-01 04:59N 48°08' W 122°41'918.2
2017-Dec-01 04:30N 48°00' W 122°36'817.4
2017-Dec-01 04:00N 47°53' W 122°28'918.2
2017-Dec-01 03:30N 47°44' W 122°26'815.8
2017-Dec-01 03:00N 47°37' W 122°23'2 4.9
2017-Dec-01 02:31N 47°35' W 122°21'0 0.1
2017-Dec-01 02:00N 47°35' W 122°21'0 0.0
2017-Dec-01 01:30N 47°35' W 122°21'0 0.0
2017-Dec-01 01:00N 47°35' W 122°21'0 0.0
2017-Dec-01 00:30N 47°35' W 122°21'0 0.0
2017-Dec-01 00:00N 47°35' W 122°21'0 0.0
2017-Nov-30 23:30N 47°35' W 122°21'0 0.0
2017-Nov-30 23:00N 47°35' W 122°21'0 0.0
2017-Nov-30 22:30N 47°35' W 122°21'0 0.0
2017-Nov-30 22:00N 47°35' W 122°21'0 0.0
2017-Nov-30 21:30N 47°35' W 122°21'0 0.0
2017-Nov-30 21:00N 47°35' W 122°21'0 0.0
2017-Nov-30 20:30N 47°35' W 122°21'0 0.0
2017-Nov-30 20:00N 47°35' W 122°21'0 0.0
2017-Nov-30 19:30N 47°35' W 122°21'0 0.0
2017-Nov-30 19:00N 47°35' W 122°21'0 0.0
2017-Nov-30 18:30N 47°35' W 122°21'0 0.0
2017-Nov-30 18:00N 47°35' W 122°21'0 0.0
2017-Nov-30 17:30N 47°35' W 122°21'0 0.0
2017-Nov-30 17:00N 47°35' W 122°21'0 0.0
2017-Nov-30 16:30N 47°35' W 122°21'0 0.0
2017-Nov-30 16:00N 47°35' W 122°21'0 0.0
2017-Nov-30 15:30N 47°35' W 122°21'0 0.0
2017-Nov-30 15:00N 47°35' W 122°21'0 0.0
2017-Nov-30 14:30N 47°35' W 122°21'0 0.0
2017-Nov-30 14:00N 47°35' W 122°21'0 0.0
2017-Nov-30 13:30N 47°35' W 122°21'0 0.0
2017-Nov-30 13:00N 47°35' W 122°21'0 0.0
2017-Nov-30 12:30N 47°35' W 122°21'0 0.0
2017-Nov-30 12:00N 47°35' W 122°21'0 0.0
2017-Nov-30 11:30N 47°35' W 122°21'0 0.0
2017-Nov-30 11:00N 47°35' W 122°21'0 0.0
2017-Nov-30 10:30N 47°35' W 122°21'0 0.0
2017-Nov-30 10:00N 47°35' W 122°21'0 0.0
2017-Nov-30 09:30N 47°35' W 122°21'0 0.0
2017-Nov-30 09:00N 47°35' W 122°21'0 0.0
2017-Nov-30 08:30N 47°35' W 122°21'0 0.0
2017-Nov-30 08:00N 47°35' W 122°21'0 0.0
2017-Nov-30 07:30N 47°35' W 122°21'0 0.0
2017-Nov-30 07:00N 47°35' W 122°21'0 0.0
2017-Nov-30 06:30N 47°35' W 122°21'0 0.0
2017-Nov-30 06:00N 47°35' W 122°21'0 0.1
2017-Nov-30 05:30N 47°35' W 122°21'0 0.1
2017-Nov-30 05:00N 47°35' W 122°21'0 0.0
2017-Nov-30 04:30N 47°35' W 122°21'0 0.0
2017-Nov-30 04:00N 47°35' W 122°21'0 0.0
2017-Nov-30 03:30N 47°35' W 122°21'0 0.0
2017-Nov-30 03:00N 47°35' W 122°21'0 0.0
2017-Nov-30 02:30N 47°35' W 122°21'0 0.0
2017-Nov-30 02:00N 47°35' W 122°21'0 0.0
2017-Nov-30 01:30N 47°35' W 122°21'0 0.0
2017-Nov-30 01:00N 47°35' W 122°21'0 0.0
2017-Nov-30 00:30N 47°35' W 122°21'0 0.0
2017-Nov-30 00:00N 47°35' W 122°21'0 0.1
2017-Nov-29 23:31N 47°35' W 122°21'1 2.5
2017-Nov-29 23:00N 47°36' W 122°21'3 6.2
2017-Nov-29 22:30N 47°38' W 122°25'510.9
2017-Nov-29 22:00N 47°43' W 122°27'612.6
2017-Nov-29 21:30N 47°49' W 122°28'  
Track history (hours):
 
Tides and Currents Weather Stations Pressure Air Temp Water Temp Dewpoint Dewpoint Depression Visibility Wind Speed Wind Dir Waves Ship Positions

Halifax Express

Last reported at 2017-Dec-09 21:11 UTC. Time now 2017-Dec-11 02:20 UTC.
Position N 32°13' W 117°35'.

Length 294 m; draft 11.6 m.

Type: Cargo ship. MMSI: 477133700.

Date/timePositionNaut miles runAvg speedWind from/ knotsBaromVisibWave heightAir tempDewpointWater temp
2017-Dec-09 21:11N 32°13' W 117°35'315.3
2017-Dec-09 21:00N 32°15' W 117°36'715.2
2017-Dec-09 20:31N 32°22' W 117°39'815.2
2017-Dec-09 20:01N 32°29' W 117°42'815.4
2017-Dec-09 19:30N 32°37' W 117°45'815.7
2017-Dec-09 19:01N 32°44' W 117°48'815.4
2017-Dec-09 18:30N 32°52' W 117°51'815.4
2017-Dec-09 18:00N 32°59' W 117°54'611.7
2017-Dec-09 17:31N 33°04' W 117°56'510.2
2017-Dec-09 17:00N 33°09' W 117°59'510.4
2017-Dec-09 16:30N 33°13' W 118°02'510.4
2017-Dec-09 16:00N 33°18' W 118°05'510.3
2017-Dec-09 15:30N 33°23' W 118°08'510.2
2017-Dec-09 15:00N 33°27' W 118°10'510.3
2017-Dec-09 14:30N 33°32' W 118°12'510.2
2017-Dec-09 14:00N 33°37' W 118°13'5 9.8
2017-Dec-09 13:30N 33°42' W 118°12'3 6.3
2017-Dec-09 13:00N 33°45' W 118°13'1 0.4
2017-Dec-09 08:58N 33°46' W 118°14'0 0.0
2017-Dec-09 08:04N 33°46' W 118°14'0 0.0
2017-Dec-09 07:52N 33°46' W 118°14'0 0.0
2017-Dec-08 22:05N 33°46' W 118°14'0 1.7
2017-Dec-08 21:58N 33°46' W 118°14'3 3.7
2017-Dec-08 21:17N 33°44' W 118°12'4 8.8
2017-Dec-08 20:52N 33°41' W 118°11'2 6.6
2017-Dec-08 20:30N 33°38' W 118°11'4 8.5
2017-Dec-08 20:00N 33°36' W 118°16'4 8.5
2017-Dec-08 19:30N 33°36' W 118°21'4 8.9
2017-Dec-08 19:01N 33°36' W 118°26'510.6
2017-Dec-08 18:31N 33°36' W 118°32'510.6
2017-Dec-08 18:00N 33°37' W 118°39'510.8
2017-Dec-08 17:30N 33°36' W 118°45'510.8
2017-Dec-08 17:00N 33°36' W 118°52'510.9
2017-Dec-08 16:30N 33°36' W 118°58'4 8.4
2017-Dec-08 16:01N 33°36' W 119°03'510.4
2017-Dec-08 15:30N 33°36' W 119°10'510.5
2017-Dec-08 15:00N 33°35' W 119°16'510.1
2017-Dec-08 14:30N 33°34' W 119°22'510.4
2017-Dec-08 13:59N 33°33' W 119°28'510.5
2017-Dec-08 13:30N 33°32' W 119°34'5 9.8
2017-Dec-08 13:00N 33°32' W 119°40'510.1
2017-Dec-08 12:30N 33°31' W 119°46'510.8
2017-Dec-08 12:00N 33°30' W 119°52'611.1
2017-Dec-08 11:30N 33°29' W 119°59'610.9
2017-Dec-08 11:00N 33°28' W 120°05'713.4
2017-Dec-08 10:30N 33°28' W 120°13'915.4
2017-Dec-08 09:57N 33°30' W 120°23'715.0
2017-Dec-08 09:30N 33°31' W 120°31'714.6
2017-Dec-08 09:00N 33°33' W 120°40'713.9
2017-Dec-08 08:30N 33°35' W 120°48'714.8
2017-Dec-08 08:00N 33°42' W 120°52'714.9
2017-Dec-08 07:30N 33°48' W 120°56'815.1
2017-Dec-08 07:00N 33°55' W 120°60'815.3
2017-Dec-08 06:30N 34°02' W 121°04'715.0
2017-Dec-08 06:00N 34°08' W 121°09'815.2
2017-Dec-08 05:30N 34°15' W 121°13'915.8
2017-Dec-08 04:58N 34°23' W 121°18'715.9
2017-Dec-08 04:30N 34°29' W 121°22'815.5
2017-Dec-08 04:00N 34°36' W 121°26'815.6
2017-Dec-08 03:30N 34°43' W 121°30'815.6
2017-Dec-08 03:00N 34°50' W 121°35'815.5
2017-Dec-08 02:30N 34°57' W 121°39'815.6
2017-Dec-08 02:00N 35°03' W 121°44'815.4
2017-Dec-08 01:30N 35°10' W 121°49'815.6
2017-Dec-08 01:00N 35°17' W 121°53'815.7
2017-Dec-08 00:30N 35°24' W 121°57'815.4
2017-Dec-08 00:00N 35°31' W 122°02'715.1
2017-Dec-07 23:30N 35°37' W 122°06'815.4
2017-Dec-07 23:00N 35°44' W 122°11'815.3
2017-Dec-07 22:30N 35°51' W 122°15'815.6
2017-Dec-07 22:00N 35°58' W 122°19'815.6
2017-Dec-07 21:30N 36°05' W 122°23'815.6
2017-Dec-07 21:00N 36°12' W 122°26'815.9
2017-Dec-07 20:30N 36°20' W 122°30'816.3
2017-Dec-07 20:00N 36°27' W 122°34'815.6
2017-Dec-07 19:30N 36°35' W 122°38'815.2
2017-Dec-07 19:00N 36°41' W 122°42'714.6
2017-Dec-07 18:31N 36°48' W 122°44'611.6
2017-Dec-07 18:01N 36°54' W 122°43'510.1
2017-Dec-07 17:31N 36°59' W 122°44'510.2
2017-Dec-07 17:00N 37°05' W 122°44'510.5
2017-Dec-07 16:30N 37°10' W 122°44'510.4
2017-Dec-07 16:01N 37°15' W 122°44'510.3
2017-Dec-07 15:30N 37°20' W 122°44'510.2
2017-Dec-07 15:01N 37°25' W 122°44'510.3
2017-Dec-07 14:29N 37°30' W 122°44'510.4
2017-Dec-07 14:00N 37°36' W 122°44'5 9.9
2017-Dec-07 13:30N 37°40' W 122°43'510.2
2017-Dec-07 13:01N 37°45' W 122°40'612.3
2017-Dec-07 12:30N 37°48' W 122°33'815.3
2017-Dec-07 12:00N 37°50' W 122°24'4 8.5
2017-Dec-07 11:30N 37°48' W 122°19'0 0.0
2017-Dec-07 10:59N 37°48' W 122°19'0 0.0
2017-Dec-07 10:29N 37°48' W 122°19'0 0.0
2017-Dec-07 09:59N 37°48' W 122°19'0 0.0
2017-Dec-07 09:29N 37°48' W 122°19'0 0.0
2017-Dec-07 08:59N 37°48' W 122°19'0 0.0
2017-Dec-07 08:30N 37°48' W 122°19'0 0.0
2017-Dec-07 08:00N 37°48' W 122°19'0 0.0
2017-Dec-07 07:29N 37°48' W 122°19'0 0.0
2017-Dec-07 06:59N 37°48' W 122°19'0 0.0
2017-Dec-07 06:29N 37°48' W 122°19'0 0.0
2017-Dec-07 05:59N 37°48' W 122°19'0 0.0
2017-Dec-07 05:29N 37°48' W 122°19'0 0.0
2017-Dec-07 04:59N 37°48' W 122°19'0 0.0
2017-Dec-07 04:30N 37°48' W 122°19'0 0.0
2017-Dec-07 03:59N 37°48' W 122°19'0 0.0
2017-Dec-07 03:29N 37°48' W 122°19'0 0.0
2017-Dec-07 02:59N 37°48' W 122°19'0 0.0
2017-Dec-07 02:29N 37°48' W 122°19'0 0.0
2017-Dec-07 01:59N 37°48' W 122°19'0 0.0
2017-Dec-07 01:29N 37°48' W 122°19'0 0.0
2017-Dec-07 01:00N 37°48' W 122°19'0 0.0
2017-Dec-07 00:29N 37°48' W 122°19'0 0.0
2017-Dec-06 23:59N 37°48' W 122°19'1 2.6
2017-Dec-06 23:30N 37°48' W 122°17'2 3.5
2017-Dec-06 23:00N 37°48' W 122°20'4 8.8
2017-Dec-06 22:30N 37°49' W 122°25'714.3
2017-Dec-06 22:01N 37°47' W 122°34'713.1
2017-Dec-06 21:30N 37°46' W 122°42'4 8.4
2017-Dec-06 21:00N 37°47' W 122°47'  
2017-Dec-04 10:30N 48°29' W 124°38'611.7
2017-Dec-04 10:00N 48°27' W 124°30'611.5
2017-Dec-04 09:30N 48°25' W 124°22'611.5
2017-Dec-04 09:00N 48°22' W 124°14'611.9
2017-Dec-04 08:30N 48°20' W 124°06'611.8
2017-Dec-04 08:00N 48°18' W 123°57'611.8
2017-Dec-04 07:30N 48°17' W 123°49'713.7
2017-Dec-04 07:00N 48°16' W 123°38'612.3
2017-Dec-04 06:30N 48°17' W 123°29'612.9
2017-Dec-04 06:00N 48°23' W 123°24'611.5
2017-Dec-04 05:31N 48°24' W 123°16'917.2
2017-Dec-04 05:00N 48°32' W 123°13'1020.7
2017-Dec-04 04:30N 48°42' W 123°15'1019.5
2017-Dec-04 04:00N 48°47' W 123°02'816.6
2017-Dec-04 03:30N 48°54' W 123°08'1019.3
2017-Dec-04 03:00N 49°01' W 123°19'611.6
2017-Dec-04 02:30N 49°06' W 123°18'612.1
2017-Dec-04 02:00N 49°07' W 123°09'611.6
2017-Dec-04 01:30N 49°09' W 123°01'4 8.2
2017-Dec-04 01:00N 49°11' W 122°55'0 0.9
2017-Dec-04 00:30N 49°11' W 122°55'0 0.0
2017-Dec-04 00:00N 49°11' W 122°55'0 0.0
2017-Dec-03 23:29N 49°11' W 122°55'0 0.0
2017-Dec-03 22:59N 49°11' W 122°55'0 0.0
2017-Dec-03 22:29N 49°11' W 122°55'0 0.0
2017-Dec-03 21:59N 49°11' W 122°55'0 0.0
2017-Dec-03 21:29N 49°11' W 122°55'0 0.0
2017-Dec-03 20:59N 49°11' W 122°55'0 0.0
2017-Dec-03 20:29N 49°11' W 122°55'0 0.0
2017-Dec-03 19:59N 49°11' W 122°55'0 0.0
2017-Dec-03 19:29N 49°11' W 122°55'0 0.0
2017-Dec-03 18:59N 49°11' W 122°55'0 0.0
2017-Dec-03 18:29N 49°11' W 122°55'0 0.0
2017-Dec-03 17:59N 49°11' W 122°55'0 0.0
2017-Dec-03 17:29N 49°11' W 122°55'0 0.0
2017-Dec-03 16:59N 49°11' W 122°55'0 0.0
2017-Dec-03 16:26N 49°11' W 122°55'0 0.0
2017-Dec-03 15:59N 49°11' W 122°55'0 0.0
2017-Dec-03 15:23N 49°11' W 122°55'0 0.0
2017-Dec-03 14:59N 49°11' W 122°55'0 0.0
2017-Dec-03 14:29N 49°11' W 122°55'0 0.0
2017-Dec-03 13:59N 49°11' W 122°55'0 0.0
2017-Dec-03 13:29N 49°11' W 122°55'0 0.0
2017-Dec-03 12:59N 49°11' W 122°55'0 0.0
2017-Dec-03 12:29N 49°11' W 122°55'0 0.0
2017-Dec-03 11:59N 49°11' W 122°55'0 0.0
2017-Dec-03 11:29N 49°11' W 122°55'0 0.0
2017-Dec-03 10:59N 49°11' W 122°55'0 0.0
2017-Dec-03 10:29N 49°11' W 122°55'0 0.0
2017-Dec-03 09:59N 49°11' W 122°55'0 0.0
2017-Dec-03 09:26N 49°11' W 122°55'0 0.0
2017-Dec-03 08:59N 49°11' W 122°55'0 0.0
2017-Dec-03 08:29N 49°11' W 122°55'0 0.0
2017-Dec-03 07:59N 49°11' W 122°55'0 0.0
2017-Dec-03 07:29N 49°11' W 122°55'0 0.0
2017-Dec-03 06:59N 49°11' W 122°55'0 0.0
2017-Dec-03 06:29N 49°11' W 122°55'0 0.0
2017-Dec-03 05:59N 49°11' W 122°55'0 0.0
2017-Dec-03 05:29N 49°11' W 122°55'0 0.0
2017-Dec-03 04:59N 49°11' W 122°55'0 0.0
2017-Dec-03 04:29N 49°11' W 122°55'0 0.0
2017-Dec-03 03:59N 49°11' W 122°55'0 0.0
2017-Dec-03 03:29N 49°11' W 122°55'0 0.0
2017-Dec-03 02:59N 49°11' W 122°55'0 0.0
2017-Dec-03 02:29N 49°11' W 122°55'0 0.0
2017-Dec-03 01:59N 49°11' W 122°55'0 0.0
2017-Dec-03 01:29N 49°11' W 122°55'0 0.0
2017-Dec-03 00:59N 49°11' W 122°55'0 0.0
2017-Dec-03 00:29N 49°11' W 122°55'0 0.0
2017-Dec-02 23:59N 49°11' W 122°55'0 0.0
2017-Dec-02 23:26N 49°11' W 122°55'0 0.0
2017-Dec-02 22:59N 49°11' W 122°55'0 0.0
2017-Dec-02 22:29N 49°11' W 122°55'0 0.0
2017-Dec-02 21:59N 49°11' W 122°55'0 0.0
2017-Dec-02 21:29N 49°11' W 122°55'0 0.0
2017-Dec-02 20:56N 49°11' W 122°55'0 0.0
2017-Dec-02 20:26N 49°11' W 122°55'0 0.0
2017-Dec-02 19:56N 49°11' W 122°55'0 0.0
2017-Dec-02 19:26N 49°11' W 122°55'0 0.0
2017-Dec-02 18:59N 49°11' W 122°55'0 0.0
2017-Dec-02 18:29N 49°11' W 122°55'0 0.0
2017-Dec-02 17:53N 49°11' W 122°55'0 0.0
2017-Dec-02 17:29N 49°11' W 122°55'0 0.0
2017-Dec-02 16:32N 49°11' W 122°55'0 0.0
2017-Dec-02 16:29N 49°11' W 122°55'0 0.0
2017-Dec-02 15:59N 49°11' W 122°55'0 0.0
2017-Dec-02 15:29N 49°11' W 122°55'0 0.0
2017-Dec-02 14:59N 49°11' W 122°55'0 0.0
2017-Dec-02 14:29N 49°11' W 122°55'0 0.0
2017-Dec-02 13:59N 49°11' W 122°55'0 0.0
2017-Dec-02 13:29N 49°11' W 122°55'0 0.0
2017-Dec-02 12:59N 49°11' W 122°55'0 0.0
2017-Dec-02 12:29N 49°11' W 122°55'0 0.0
2017-Dec-02 11:59N 49°11' W 122°55'0 0.0
2017-Dec-02 11:17N 49°11' W 122°55'0 0.0
2017-Dec-02 10:59N 49°11' W 122°55'0 0.0
2017-Dec-02 10:23N 49°11' W 122°55'0 0.0
2017-Dec-02 09:59N 49°11' W 122°55'0 0.0
2017-Dec-02 09:29N 49°11' W 122°55'0 0.0
2017-Dec-02 08:59N 49°11' W 122°55'0 0.0
2017-Dec-02 08:29N 49°11' W 122°55'0 0.0
2017-Dec-02 07:59N 49°11' W 122°55'0 0.0
2017-Dec-02 07:29N 49°11' W 122°55'0 0.0
2017-Dec-02 06:53N 49°11' W 122°55'0 0.0
2017-Dec-02 06:29N 49°11' W 122°55'0 0.0
2017-Dec-02 05:59N 49°11' W 122°55'0 0.0
2017-Dec-02 05:26N 49°11' W 122°55'0 0.0
2017-Dec-02 04:59N 49°11' W 122°55'0 0.0
2017-Dec-02 04:29N 49°11' W 122°55'0 0.0
2017-Dec-02 03:59N 49°11' W 122°55'0 0.0
2017-Dec-02 03:30N 49°11' W 122°55'2 3.1
2017-Dec-02 03:00N 49°10' W 122°56'3 6.1
2017-Dec-02 02:30N 49°09' W 123°01'4 7.5
2017-Dec-02 02:00N 49°07' W 123°05'5 9.7
2017-Dec-02 01:30N 49°08' W 123°13'611.3
2017-Dec-02 01:00N 49°05' W 123°20'5 9.7
2017-Dec-02 00:30N 49°01' W 123°16'917.2
2017-Dec-02 00:00N 48°55' W 123°06'816.9
2017-Dec-01 23:30N 48°48' W 123°00'816.6
2017-Dec-01 23:00N 48°43' W 123°10'714.2
2017-Dec-01 22:30N 48°36' W 123°13'918.6
2017-Dec-01 22:00N 48°27' W 123°10'816.5
2017-Dec-01 21:30N 48°22' W 123°20'2 4.8
2017-Dec-01 21:00N 48°20' W 123°22'0 0.9
2017-Dec-01 20:30N 48°20' W 123°21'0 0.1
2017-Dec-01 20:00N 48°20' W 123°21'0 0.0
2017-Dec-01 19:30N 48°20' W 123°21'0 0.0
2017-Dec-01 18:57N 48°20' W 123°21'0 0.3
2017-Dec-01 18:30N 48°20' W 123°21'0 0.2
2017-Dec-01 18:00N 48°20' W 123°22'0 0.2
2017-Dec-01 17:30N 48°20' W 123°22'0 0.0
2017-Dec-01 17:00N 48°20' W 123°22'0 0.0
2017-Dec-01 16:30N 48°20' W 123°22'0 0.0
2017-Dec-01 16:00N 48°20' W 123°22'0 0.0
2017-Dec-01 15:30N 48°20' W 123°22'0 0.0
2017-Dec-01 15:00N 48°20' W 123°22'0 0.0
2017-Dec-01 14:30N 48°20' W 123°22'0 0.0
2017-Dec-01 14:00N 48°20' W 123°22'0 0.1
2017-Dec-01 13:30N 48°20' W 123°22'0 0.0
2017-Dec-01 13:00N 48°20' W 123°22'0 0.1
2017-Dec-01 12:30N 48°20' W 123°22'0 0.1
2017-Dec-01 12:00N 48°20' W 123°22'0 0.2
2017-Dec-01 11:30N 48°20' W 123°21'0 0.2
2017-Dec-01 11:00N 48°20' W 123°21'0 0.2
2017-Dec-01 10:30N 48°20' W 123°21'0 0.1
2017-Dec-01 10:00N 48°20' W 123°21'0 0.0
2017-Dec-01 09:30N 48°20' W 123°21'0 0.1
2017-Dec-01 09:00N 48°20' W 123°21'0 0.2
2017-Dec-01 08:31N 48°20' W 123°21'2 3.7
2017-Dec-01 08:01N 48°20' W 123°24'611.1
2017-Dec-01 07:31N 48°15' W 123°26'611.0
2017-Dec-01 07:00N 48°10' W 123°22'3 6.1
2017-Dec-01 06:30N 48°09' W 123°18'816.4
2017-Dec-01 06:00N 48°13' W 123°06'917.6
2017-Dec-01 05:30N 48°12' W 122°53'917.3
2017-Dec-01 04:59N 48°08' W 122°41'918.2
2017-Dec-01 04:30N 48°00' W 122°36'817.4
2017-Dec-01 04:00N 47°53' W 122°28'918.2
2017-Dec-01 03:30N 47°44' W 122°26'815.8
2017-Dec-01 03:00N 47°37' W 122°23'2 4.9
2017-Dec-01 02:31N 47°35' W 122°21'0 0.1
2017-Dec-01 02:00N 47°35' W 122°21'0 0.0
2017-Dec-01 01:30N 47°35' W 122°21'0 0.0
2017-Dec-01 01:00N 47°35' W 122°21'0 0.0
2017-Dec-01 00:30N 47°35' W 122°21'0 0.0
2017-Dec-01 00:00N 47°35' W 122°21'0 0.0
2017-Nov-30 23:30N 47°35' W 122°21'0 0.0
2017-Nov-30 23:00N 47°35' W 122°21'0 0.0
2017-Nov-30 22:30N 47°35' W 122°21'0 0.0
2017-Nov-30 22:00N 47°35' W 122°21'0 0.0
2017-Nov-30 21:30N 47°35' W 122°21'0 0.0
2017-Nov-30 21:00N 47°35' W 122°21'0 0.0
2017-Nov-30 20:30N 47°35' W 122°21'0 0.0
2017-Nov-30 20:00N 47°35' W 122°21'0 0.0
2017-Nov-30 19:30N 47°35' W 122°21'0 0.0
2017-Nov-30 19:00N 47°35' W 122°21'0 0.0
2017-Nov-30 18:30N 47°35' W 122°21'0 0.0
2017-Nov-30 18:00N 47°35' W 122°21'0 0.0
2017-Nov-30 17:30N 47°35' W 122°21'0 0.0
2017-Nov-30 17:00N 47°35' W 122°21'0 0.0
2017-Nov-30 16:30N 47°35' W 122°21'0 0.0
2017-Nov-30 16:00N 47°35' W 122°21'0 0.0
2017-Nov-30 15:30N 47°35' W 122°21'0 0.0
2017-Nov-30 15:00N 47°35' W 122°21'0 0.0
2017-Nov-30 14:30N 47°35' W 122°21'0 0.0
2017-Nov-30 14:00N 47°35' W 122°21'0 0.0
2017-Nov-30 13:30N 47°35' W 122°21'0 0.0
2017-Nov-30 13:00N 47°35' W 122°21'0 0.0
2017-Nov-30 12:30N 47°35' W 122°21'0 0.0
2017-Nov-30 12:00N 47°35' W 122°21'0 0.0
2017-Nov-30 11:30N 47°35' W 122°21'0 0.0
2017-Nov-30 11:00N 47°35' W 122°21'0 0.0
2017-Nov-30 10:30N 47°35' W 122°21'0 0.0
2017-Nov-30 10:00N 47°35' W 122°21'0 0.0
2017-Nov-30 09:30N 47°35' W 122°21'0 0.0
2017-Nov-30 09:00N 47°35' W 122°21'0 0.0
2017-Nov-30 08:30N 47°35' W 122°21'0 0.0
2017-Nov-30 08:00N 47°35' W 122°21'0 0.0
2017-Nov-30 07:30N 47°35' W 122°21'0 0.0
2017-Nov-30 07:00N 47°35' W 122°21'0 0.0
2017-Nov-30 06:30N 47°35' W 122°21'0 0.0
2017-Nov-30 06:00N 47°35' W 122°21'0 0.1
2017-Nov-30 05:30N 47°35' W 122°21'0 0.1
2017-Nov-30 05:00N 47°35' W 122°21'0 0.0
2017-Nov-30 04:30N 47°35' W 122°21'0 0.0
2017-Nov-30 04:00N 47°35' W 122°21'0 0.0
2017-Nov-30 03:30N 47°35' W 122°21'0 0.0
2017-Nov-30 03:00N 47°35' W 122°21'0 0.0
2017-Nov-30 02:30N 47°35' W 122°21'0 0.0
2017-Nov-30 02:00N 47°35' W 122°21'0 0.0
2017-Nov-30 01:30N 47°35' W 122°21'0 0.0
2017-Nov-30 01:00N 47°35' W 122°21'0 0.0
2017-Nov-30 00:30N 47°35' W 122°21'0 0.0
2017-Nov-30 00:00N 47°35' W 122°21'0 0.1
2017-Nov-29 23:31N 47°35' W 122°21'1 2.5
2017-Nov-29 23:00N 47°36' W 122°21'3 6.2
2017-Nov-29 22:30N 47°38' W 122°25'510.9
2017-Nov-29 22:00N 47°43' W 122°27'612.6
2017-Nov-29 21:30N 47°49' W 122°28'  

Dump ship's entire track history